Briggsville, Wisconsin
Current Conditions -  °F | °C
As of 3:35 PM on Monday 24 Nov 2014 (Local Time) from KDLL Reporting Station
Light Snow Light Snow  
Wind Chill: -9°   Ceiling: 900
Heat Index: -3°   Visibility: 0.75mi
Dew Point: -4°   Wind: 14mph
Humidity: 92%   Direction: 270°W
Pressure: 29.41"   Gusts: 22mph
Location:  43.65°N, 89.59°W
Report Text: KDLL 242135Z AUTO 27012G19KT 3/4SM -SN OVC009 M03/M04 A2941 RMK AO2 T10271038
Loading
Personal Weather Stations






























Interactive Weather Map New forecast layout! Learn more

10-Day Weather Forecast

Advertisements
Track Severe Weather on mobile